Terminal Aerodrome Forecast
Issued by NWS Mt. Holly, NJ

Home | Current Version | Previous Version | Text Only | Print | Product List | Glossary On
Versions: 1 2 3 4 5 6 7 8 9 10 11 12 13 14 15
000
FTUS41 KPHI 252038 AAA
TAFACY
TAF AMD
KACY 252038Z 2521/2618 07012KT P6SM BKN080
     FM260000 06008KT P6SM VCSH BKN040
     FM260400 06010KT P6SM OVC025
     FM260900 06012KT 6SM BR OVC015
     FM261200 07012KT 5SM -DZ BR OVC010=

USA.gov is the U.S. government's official web portal to all federal, state and local government web resources and services.